createdAt,value
2022-08-06T00:00:06.652Z,96466.56
2022-08-06T00:02:35.152Z,96462.69
2022-08-06T00:05:06.010Z,96455.97
2022-08-06T00:07:44.558Z,96454.41
2022-08-06T00:10:13.657Z,96454.00
2022-08-06T00:12:41.054Z,96455.00
2022-08-06T00:15:13.505Z,96473.34
2022-08-06T00:17:43.634Z,96472.28
2022-08-06T00:20:11.453Z,96469.78
2022-08-06T00:22:38.387Z,96464.28
2022-08-06T00:25:08.894Z,96458.31
2022-08-06T00:27:38.998Z,96446.97
2022-08-06T00:30:18.595Z,96454.41
2022-08-06T00:32:51.843Z,96449.91
2022-08-06T00:35:21.661Z,96459.97
2022-08-06T00:37:54.983Z,96468.97
2022-08-06T00:40:26.010Z,96464.78
2022-08-06T00:42:56.828Z,96475.00
2022-08-06T00:45:25.553Z,96473.50
2022-08-06T00:48:02.291Z,96475.81
2022-08-06T00:50:31.641Z,96467.91
2022-08-06T00:52:59.799Z,96477.81
2022-08-06T00:55:32.021Z,96488.28
2022-08-06T00:58:03.820Z,96482.41
2022-08-06T01:00:31.160Z,96489.22
2022-08-06T01:03:04.090Z,96482.59
2022-08-06T01:06:03.959Z,96486.69
2022-08-06T01:08:17.625Z,96484.88
2022-08-06T01:10:45.020Z,96487.84
2022-08-06T01:13:22.913Z,96493.66
2022-08-06T01:16:30.147Z,96485.03
2022-08-06T01:19:01.163Z,96494.63
2022-08-06T01:22:00.914Z,96481.34
2022-08-06T01:24:51.835Z,96483.75
2022-08-06T01:27:43.123Z,96489.56
2022-08-06T01:30:25.249Z,96482.59
2022-08-06T01:33:04.498Z,96489.28
2022-08-06T01:35:47.056Z,96503.72
2022-08-06T01:38:44.940Z,96509.25
2022-08-06T01:41:58.355Z,96514.69
2022-08-06T01:44:29.523Z,96516.88
2022-08-06T01:47:01.019Z,96516.88
2022-08-06T01:50:00.107Z,96513.56
2022-08-06T01:52:30.058Z,96519.91
2022-08-06T01:54:59.945Z,96519.91
2022-08-06T01:57:32.905Z,96521.31
2022-08-06T02:00:16.188Z,96527.97
2022-08-06T02:02:44.789Z,96531.09
2022-08-06T02:05:14.199Z,96536.16
2022-08-06T02:08:37.770Z,96540.13
2022-08-06T02:10:34.421Z,96538.47
2022-08-06T02:13:03.902Z,96545.47
2022-08-06T02:15:45.400Z,96555.09
2022-08-06T02:18:35.005Z,96554.34
2022-08-06T02:21:18.464Z,96549.50
2022-08-06T02:23:48.249Z,96553.38
2022-08-06T02:26:18.353Z,96549.91
2022-08-06T02:28:50.317Z,96550.94
2022-08-06T02:31:17.957Z,96551.81
2022-08-06T02:34:02.458Z,96549.94
2022-08-06T02:36:50.436Z,96554.34
2022-08-06T02:39:29.802Z,96562.03
2022-08-06T02:42:15.051Z,96557.56
2022-08-06T02:45:03.648Z,96554.53
2022-08-06T02:47:55.929Z,96548.41
2022-08-06T02:50:38.327Z,96544.31
2022-08-06T02:53:24.251Z,96541.28
2022-08-06T02:55:57.272Z,96538.38
2022-08-06T02:58:45.321Z,96539.63
2022-08-06T03:01:29.415Z,96533.88
2022-08-06T03:04:08.070Z,96539.22
2022-08-06T03:06:37.300Z,96538.91
2022-08-06T03:09:07.595Z,96528.56
2022-08-06T03:11:38.645Z,96527.13
2022-08-06T03:14:13.331Z,96524.19
2022-08-06T03:16:58.663Z,96521.63
2022-08-06T03:19:57.603Z,96516.16
2022-08-06T03:22:34.617Z,96527.91
2022-08-06T03:25:03.764Z,96519.69
2022-08-06T03:27:43.601Z,96520.72
2022-08-06T03:30:32.184Z,96521.09
2022-08-06T03:33:28.493Z,96512.09
2022-08-06T03:36:00.612Z,96520.75
2022-08-06T03:38:29.770Z,96509.94
2022-08-06T03:41:01.126Z,96498.63
2022-08-06T03:43:56.169Z,96501.56
2022-08-06T03:46:21.211Z,96503.78
2022-08-06T03:48:51.278Z,96500.31
2022-08-06T03:51:29.709Z,96496.00
2022-08-06T03:54:09.813Z,96493.31
2022-08-06T03:56:46.557Z,96486.25
2022-08-06T03:59:19.648Z,96482.72
2022-08-06T04:01:50.793Z,96486.50
2022-08-06T04:04:25.989Z,96496.00
2022-08-06T04:06:56.192Z,96492.75
2022-08-06T04:09:57.701Z,96503.16
2022-08-06T04:12:42.763Z,96499.00
2022-08-06T04:15:00.735Z,96501.13
2022-08-06T04:17:32.954Z,96504.19
2022-08-06T04:20:01.576Z,96504.34
2022-08-06T04:23:00.258Z,96506.84
2022-08-06T04:25:16.803Z,96504.81
2022-08-06T04:27:53.168Z,96513.88
2022-08-06T04:30:25.366Z,96521.84
2022-08-06T04:33:00.199Z,96517.91
2022-08-06T04:36:04.545Z,96509.31
2022-08-06T04:38:28.244Z,96519.41
2022-08-06T04:40:57.775Z,96527.72
2022-08-06T04:43:38.439Z,96525.84
2022-08-06T04:46:16.256Z,96532.19
2022-08-06T04:48:47.054Z,96530.44
2022-08-06T04:51:17.386Z,96532.47
2022-08-06T04:54:04.502Z,96542.69
2022-08-06T04:56:37.185Z,96535.69
2022-08-06T04:59:05.808Z,96527.63
2022-08-06T05:01:40.818Z,96532.28
2022-08-06T05:04:22.781Z,96543.84
2022-08-06T05:06:56.823Z,96543.13
2022-08-06T05:09:42.792Z,96541.94
2022-08-06T05:12:33.890Z,96546.69
2022-08-06T05:15:08.858Z,96548.28
2022-08-06T05:17:41.555Z,96545.38
2022-08-06T05:20:27.600Z,96547.91
2022-08-06T05:23:09.036Z,96551.03
2022-08-06T05:25:48.137Z,96557.22
2022-08-06T05:28:22.859Z,96561.72
2022-08-06T05:30:55.547Z,96552.66
2022-08-06T05:33:26.632Z,96558.97
2022-08-06T05:36:01.640Z,96570.72
2022-08-06T05:38:32.100Z,96562.59
2022-08-06T05:41:03.579Z,96573.03
2022-08-06T05:43:58.769Z,96571.25
2022-08-06T05:46:25.021Z,96567.03
2022-08-06T05:48:55.186Z,96571.38
2022-08-06T05:51:43.671Z,96578.41
2022-08-06T05:54:38.578Z,96578.31
2022-08-06T05:57:33.542Z,96576.56
2022-08-06T06:00:41.837Z,96576.97
2022-08-06T06:03:01.859Z,96567.84
2022-08-06T06:06:07.296Z,96577.13
2022-08-06T06:08:29.566Z,96574.16
2022-08-06T06:11:06.239Z,96581.28
2022-08-06T06:13:57.946Z,96576.69
2022-08-06T06:16:32.365Z,96582.28
2022-08-06T06:19:21.673Z,96575.25
2022-08-06T06:22:17.310Z,96574.31
2022-08-06T06:24:53.870Z,96577.81
2022-08-06T06:27:42.524Z,96580.13
2022-08-06T06:30:33.090Z,96581.00
2022-08-06T06:33:36.550Z,96594.56
2022-08-06T06:36:17.522Z,96593.03
2022-08-06T06:38:47.419Z,96593.13
2022-08-06T06:41:53.323Z,96592.91
2022-08-06T06:45:03.607Z,96594.44
2022-08-06T06:47:46.493Z,96595.72
2022-08-06T06:50:36.314Z,96589.53
2022-08-06T06:53:03.394Z,96586.78
2022-08-06T06:55:56.926Z,96590.50
2022-08-06T06:58:47.320Z,96593.38
2022-08-06T07:01:28.648Z,96587.94
2022-08-06T07:03:58.056Z,96586.50
2022-08-06T07:06:30.818Z,96591.94
2022-08-06T07:09:00.371Z,96593.09
2022-08-06T07:12:01.617Z,96589.31
2022-08-06T07:14:33.689Z,96592.66
2022-08-06T07:17:01.771Z,96592.25
2022-08-06T07:19:50.511Z,96601.34
2022-08-06T07:22:19.240Z,96599.63
2022-08-06T07:24:47.266Z,96601.06
2022-08-06T07:27:16.525Z,96609.72
2022-08-06T07:29:59.637Z,96604.81
2022-08-06T07:32:32.087Z,96614.72
2022-08-06T07:35:12.119Z,96602.88
2022-08-06T07:37:50.154Z,96601.41
2022-08-06T07:40:28.605Z,96608.25
2022-08-06T07:43:24.779Z,96610.44
2022-08-06T07:45:54.915Z,96612.78
2022-08-06T07:48:28.878Z,96616.34
2022-08-06T07:51:01.096Z,96612.31
2022-08-06T07:53:40.925Z,96617.22
2022-08-06T07:56:16.598Z,96620.56
2022-08-06T07:58:45.951Z,96612.88
2022-08-06T08:01:17.183Z,96614.25
2022-08-06T08:04:30.121Z,96620.31
2022-08-06T08:06:56.462Z,96623.66
2022-08-06T08:09:29.509Z,96622.16
2022-08-06T08:12:25.626Z,96625.38
2022-08-06T08:15:03.346Z,96623.03
2022-08-06T08:17:35.486Z,96630.50
2022-08-06T08:20:15.446Z,96632.06
2022-08-06T08:22:48.437Z,96627.56
2022-08-06T08:25:21.421Z,96630.78
2022-08-06T08:28:12.758Z,96639.22
2022-08-06T08:30:44.492Z,96634.59
2022-08-06T08:33:18.432Z,96648.81
2022-08-06T08:35:49.826Z,96649.50
2022-08-06T08:38:29.396Z,96643.91
2022-08-06T08:40:57.566Z,96640.28
2022-08-06T08:43:58.814Z,96644.53
2022-08-06T08:46:18.963Z,96633.44
2022-08-06T08:49:01.416Z,96648.13
2022-08-06T08:51:28.751Z,96645.47
2022-08-06T08:53:58.539Z,96648.81
2022-08-06T08:57:07.938Z,96646.56
2022-08-06T08:59:57.794Z,96647.47
2022-08-06T09:02:01.156Z,96643.56
2022-08-06T09:04:29.131Z,96654.22
2022-08-06T09:06:57.248Z,96651.75
2022-08-06T09:09:30.310Z,96648.31
2022-08-06T09:12:05.353Z,96656.00
2022-08-06T09:14:47.526Z,96652.13
2022-08-06T09:17:14.632Z,96650.16
2022-08-06T09:19:45.586Z,96648.69
2022-08-06T09:22:12.555Z,96645.41
2022-08-06T09:24:40.296Z,96638.50
2022-08-06T09:27:46.899Z,96640.09
2022-08-06T09:30:25.305Z,96651.53
2022-08-06T09:32:57.895Z,96652.66
2022-08-06T09:35:42.783Z,96651.72
2022-08-06T09:38:10.930Z,96656.25
2022-08-06T09:40:37.694Z,96660.00
2022-08-06T09:43:10.106Z,96665.28
2022-08-06T09:45:45.708Z,96661.72
2022-08-06T09:48:17.783Z,96669.47
2022-08-06T09:50:51.069Z,96667.97
2022-08-06T09:53:21.680Z,96670.03
2022-08-06T09:55:58.551Z,96664.53
2022-08-06T09:58:37.676Z,96667.78
2022-08-06T10:01:21.112Z,96674.38
2022-08-06T10:04:02.470Z,96678.78
2022-08-06T10:06:39.854Z,96690.66
2022-08-06T10:09:20.923Z,96680.16
2022-08-06T10:12:00.149Z,96681.66
2022-08-06T10:14:32.034Z,96685.63
2022-08-06T10:17:11.671Z,96680.09
2022-08-06T10:19:51.986Z,96680.53
2022-08-06T10:22:27.012Z,96688.31
2022-08-06T10:24:57.147Z,96692.28
2022-08-06T10:27:35.880Z,96698.16
2022-08-06T10:30:07.198Z,96701.22
2022-08-06T10:32:46.723Z,96704.53
2022-08-06T10:35:25.318Z,96714.69
2022-08-06T10:38:14.812Z,96717.09
2022-08-06T10:40:57.416Z,96725.16
2022-08-06T10:43:30.092Z,96736.34
2022-08-06T10:46:02.607Z,96734.78
2022-08-06T10:50:22.634Z,96749.84
2022-08-06T10:51:56.714Z,96744.13
2022-08-06T10:54:19.695Z,96754.66
2022-08-06T10:56:49.401Z,96751.31
2022-08-06T10:59:19.077Z,96754.81
2022-08-06T11:02:23.481Z,96764.44
2022-08-06T11:05:17.962Z,96766.09
2022-08-06T11:08:41.144Z,96768.41
2022-08-06T11:11:42.265Z,96760.72
2022-08-06T11:14:14.752Z,96758.34
2022-08-06T11:17:00.077Z,96761.03
2022-08-06T11:19:57.556Z,96762.34
2022-08-06T11:22:38.889Z,96758.47
2022-08-06T11:25:26.345Z,96761.34
2022-08-06T11:28:02.848Z,96771.28
2022-08-06T11:30:54.460Z,96762.34
2022-08-06T11:33:43.759Z,96765.38
2022-08-06T11:36:24.513Z,96772.00
2022-08-06T11:38:59.306Z,96765.72
2022-08-06T11:41:54.233Z,96769.19
2022-08-06T11:44:35.818Z,96776.97
2022-08-06T11:47:22.940Z,96787.06
2022-08-06T11:50:04.333Z,96779.09
2022-08-06T11:52:41.188Z,96779.22
2022-08-06T11:55:12.961Z,96774.72
2022-08-06T11:58:10.872Z,96779.19
2022-08-06T12:00:56.377Z,96771.63
2022-08-06T12:03:45.054Z,96778.44
2022-08-06T12:06:29.399Z,96775.94
2022-08-06T12:09:35.924Z,96787.41
2022-08-06T12:12:26.617Z,96787.38
2022-08-06T12:14:55.002Z,96783.97
2022-08-06T12:17:44.756Z,96789.13
2022-08-06T12:20:13.319Z,96798.81
2022-08-06T12:23:00.910Z,96803.34
2022-08-06T12:25:32.419Z,96801.97
2022-08-06T12:27:59.211Z,96800.19
2022-08-06T12:30:35.934Z,96792.34
2022-08-06T12:33:04.325Z,96792.44
2022-08-06T12:35:57.877Z,96790.13
2022-08-06T12:38:27.607Z,96790.19
2022-08-06T12:41:09.533Z,96789.53
2022-08-06T12:43:56.562Z,96792.38
2022-08-06T12:46:29.761Z,96789.41
2022-08-06T12:49:01.562Z,96782.41
2022-08-06T12:51:30.400Z,96788.69
2022-08-06T12:54:02.263Z,96787.00
2022-08-06T12:56:32.959Z,96787.88
2022-08-06T12:59:05.833Z,96794.28
2022-08-06T13:02:07.318Z,96790.84
2022-08-06T13:04:30.211Z,96792.06
2022-08-06T13:06:59.479Z,96792.06
2022-08-06T13:09:35.891Z,96789.31
2022-08-06T13:12:19.755Z,96775.41
2022-08-06T13:15:02.742Z,96778.22
2022-08-06T13:18:01.779Z,96785.16
2022-08-06T13:20:43.982Z,96785.94
2022-08-06T13:23:22.476Z,96786.53
2022-08-06T13:25:54.447Z,96789.56
2022-08-06T13:28:38.387Z,96785.72
2022-08-06T13:31:23.845Z,96788.00
2022-08-06T13:34:14.792Z,96796.13
2022-08-06T13:36:50.047Z,96791.66
2022-08-06T13:39:33.923Z,96794.59
2022-08-06T13:42:14.316Z,96793.63
2022-08-06T13:44:45.102Z,96797.75
2022-08-06T13:47:35.844Z,96798.97
2022-08-06T13:50:06.303Z,96802.34
2022-08-06T13:52:35.185Z,96804.25
2022-08-06T13:55:02.127Z,96807.09
2022-08-06T13:57:36.582Z,96810.38
2022-08-06T14:00:11.198Z,96810.38
2022-08-06T14:02:39.219Z,96817.28
2022-08-06T14:05:19.979Z,96813.91
2022-08-06T14:07:50.715Z,96811.72
2022-08-06T14:10:18.597Z,96821.09
2022-08-06T14:13:12.771Z,96820.25
2022-08-06T14:15:44.549Z,96812.56
2022-08-06T14:18:11.830Z,96825.81
2022-08-06T14:20:42.041Z,96821.09
2022-08-06T14:23:08.895Z,96816.91
2022-08-06T14:26:00.282Z,96816.94
2022-08-06T14:28:22.798Z,96811.72
2022-08-06T14:30:52.098Z,96812.47
2022-08-06T14:33:26.346Z,96809.47
2022-08-06T14:35:53.707Z,96811.91
2022-08-06T14:38:21.728Z,96817.81
2022-08-06T14:41:17.094Z,96816.13
2022-08-06T14:44:02.418Z,96825.72
2022-08-06T14:46:31.970Z,96823.59
2022-08-06T14:49:05.847Z,96811.34
2022-08-06T14:52:19.999Z,96816.97
2022-08-06T14:54:31.694Z,96830.78
2022-08-06T14:57:14.663Z,96827.47
2022-08-06T14:59:48.505Z,96827.75
2022-08-06T15:02:20.800Z,96825.72
2022-08-06T15:04:52.189Z,96821.66
2022-08-06T15:07:25.594Z,96826.72
2022-08-06T15:10:27.629Z,96831.31
2022-08-06T15:13:01.001Z,96821.44
2022-08-06T15:15:36.527Z,96829.34
2022-08-06T15:18:25.212Z,96826.75
2022-08-06T15:21:00.617Z,96833.47
2022-08-06T15:23:44.834Z,96823.25
2022-08-06T15:26:47.269Z,96835.09
2022-08-06T15:29:04.575Z,96831.44
2022-08-06T15:31:37.564Z,96840.31
2022-08-06T15:34:07.017Z,96833.94
2022-08-06T15:36:36.178Z,96827.66
2022-08-06T15:39:09.321Z,96824.53
2022-08-06T15:41:42.843Z,96829.59
2022-08-06T15:44:10.335Z,96830.41
2022-08-06T15:46:41.661Z,96844.94
2022-08-06T15:49:13.051Z,96832.66
2022-08-06T15:52:00.840Z,96831.63
2022-08-06T15:54:28.421Z,96836.63
2022-08-06T15:56:55.067Z,96829.13
2022-08-06T15:59:21.743Z,96830.75
2022-08-06T16:01:52.421Z,96830.72
2022-08-06T16:04:32.488Z,96833.47
2022-08-06T16:07:07.275Z,96838.44
2022-08-06T16:09:56.077Z,96833.81
2022-08-06T16:12:23.503Z,96842.31
2022-08-06T16:14:57.145Z,96844.19
2022-08-06T16:17:53.330Z,96839.09
2022-08-06T16:20:20.907Z,96828.06
2022-08-06T16:22:53.000Z,96831.69
2022-08-06T16:25:22.812Z,96827.09
2022-08-06T16:27:51.828Z,96827.31
2022-08-06T16:30:19.576Z,96824.44
2022-08-06T16:32:46.276Z,96825.00
2022-08-06T16:35:17.632Z,96823.72
2022-08-06T16:37:51.916Z,96826.25
2022-08-06T16:40:21.724Z,96829.19
2022-08-06T16:42:49.315Z,96830.41
2022-08-06T16:45:16.689Z,96830.84
2022-08-06T16:50:36.376Z,96826.66
2022-08-06T16:54:08.784Z,96828.47
2022-08-06T16:55:55.608Z,96827.34
2022-08-06T17:02:15.151Z,96827.84
2022-08-06T17:04:00.031Z,96834.59
2022-08-06T17:12:04.073Z,96832.75
2022-08-06T17:14:33.824Z,96832.31
2022-08-06T17:17:06.702Z,96838.34
2022-08-06T17:19:34.304Z,96821.19
2022-08-06T17:22:04.008Z,96824.34
2022-08-06T17:24:37.738Z,96830.03
2022-08-06T17:27:10.554Z,96822.56
2022-08-06T17:29:45.747Z,96824.81
2022-08-06T17:32:30.174Z,96825.31
2022-08-06T17:35:10.867Z,96821.06
2022-08-06T17:37:44.318Z,96823.25
2022-08-06T17:40:19.229Z,96828.56
2022-08-06T17:43:04.725Z,96825.47
2022-08-06T17:45:51.735Z,96822.22
2022-08-06T17:48:24.799Z,96818.66
2022-08-06T17:50:52.126Z,96821.63
2022-08-06T17:53:21.468Z,96821.47
2022-08-06T17:55:59.689Z,96827.13
2022-08-06T17:58:34.557Z,96830.50
2022-08-06T18:01:10.145Z,96829.13
2022-08-06T18:03:50.606Z,96828.53
2022-08-06T18:06:18.807Z,96827.75
2022-08-06T18:08:50.838Z,96828.44
2022-08-06T18:11:19.566Z,96828.53
2022-08-06T18:13:52.775Z,96830.50
2022-08-06T18:16:26.557Z,96825.97
2022-08-06T18:18:57.406Z,96823.91
2022-08-06T18:21:25.547Z,96820.38
2022-08-06T18:23:56.204Z,96826.66
2022-08-06T18:26:30.793Z,96820.00
2022-08-06T18:28:59.958Z,96824.34
2022-08-06T18:31:59.197Z,96819.34
2022-08-06T18:34:16.203Z,96820.34
2022-08-06T18:36:45.478Z,96815.91
2022-08-06T18:39:15.000Z,96816.59
2022-08-06T18:41:56.877Z,96826.03
2022-08-06T18:44:27.248Z,96824.38
2022-08-06T18:46:55.498Z,96830.78
2022-08-06T18:49:32.215Z,96823.66
2022-08-06T18:52:06.083Z,96820.66
2022-08-06T18:54:56.562Z,96822.81
2022-08-06T18:57:37.991Z,96819.97
2022-08-06T19:00:18.315Z,96821.56
2022-08-06T19:02:45.313Z,96828.16
2022-08-06T19:05:15.566Z,96827.94
2022-08-06T19:07:49.806Z,96827.97
2022-08-06T19:10:19.011Z,96823.16
2022-08-06T19:12:48.274Z,96816.72
2022-08-06T19:15:19.639Z,96825.94
2022-08-06T19:18:13.422Z,96830.69
2022-08-06T19:20:38.183Z,96827.97
2022-08-06T19:23:06.413Z,96820.47
2022-08-06T19:25:52.736Z,96827.31
2022-08-06T19:28:34.814Z,96826.41
2022-08-06T19:31:11.349Z,96832.53
2022-08-06T19:33:38.324Z,96832.44
2022-08-06T19:36:26.983Z,96836.63
2022-08-06T19:38:53.855Z,96840.84
2022-08-06T19:41:55.099Z,96846.69
2022-08-06T19:44:25.760Z,96844.41
2022-08-06T19:46:57.337Z,96852.84
2022-08-06T19:49:24.538Z,96848.25
2022-08-06T19:52:04.091Z,96849.06
2022-08-06T19:54:36.446Z,96849.16
2022-08-06T19:57:08.442Z,96847.13
2022-08-06T20:00:51.075Z,96846.88
2022-08-06T20:02:26.263Z,96849.41
2022-08-06T20:04:55.770Z,96848.84
2022-08-06T20:07:25.769Z,96853.03
2022-08-06T20:09:59.891Z,96840.31
2022-08-06T20:12:33.866Z,96845.44
2022-08-06T20:15:28.473Z,96844.13
2022-08-06T20:17:55.419Z,96842.56
2022-08-06T20:20:28.958Z,96839.38
2022-08-06T20:23:00.139Z,96849.16
2022-08-06T20:25:27.314Z,96840.97
2022-08-06T20:29:07.351Z,96854.19
2022-08-06T20:30:49.394Z,96852.78
2022-08-06T20:33:24.328Z,96842.00
2022-08-06T20:35:57.278Z,96849.38
2022-08-06T20:38:33.263Z,96856.94
2022-08-06T20:41:57.612Z,96850.06
2022-08-06T20:44:06.243Z,96848.94
2022-08-06T20:49:29.049Z,96841.66
2022-08-06T20:52:10.950Z,96835.19
2022-08-06T20:54:51.269Z,96835.22
2022-08-06T20:57:25.600Z,96822.84
2022-08-06T20:59:54.101Z,96832.72
2022-08-06T21:02:25.993Z,96838.03
2022-08-06T21:05:15.159Z,96824.41
2022-08-06T21:07:57.563Z,96815.88
2022-08-06T21:10:30.553Z,96813.50
2022-08-06T21:13:06.206Z,96822.16
2022-08-06T21:15:54.468Z,96814.88
2022-08-06T21:18:21.900Z,96821.69
2022-08-06T21:20:51.674Z,96820.56
2022-08-06T21:23:26.298Z,96818.84
2022-08-06T21:26:15.058Z,96818.53
2022-08-06T21:28:54.183Z,96812.16
2022-08-06T21:31:24.025Z,96816.44
2022-08-06T21:33:54.219Z,96811.56
2022-08-06T21:36:25.807Z,96816.84
2022-08-06T21:38:55.275Z,96813.22
2022-08-06T21:41:42.227Z,96814.63
2022-08-06T21:44:17.359Z,96816.22
2022-08-06T21:46:50.319Z,96811.59
2022-08-06T21:49:58.084Z,96816.91
2022-08-06T21:52:11.880Z,96814.31
2022-08-06T21:54:43.352Z,96815.41
2022-08-06T21:57:12.316Z,96818.91
2022-08-06T21:59:46.207Z,96816.47
2022-08-06T22:02:21.622Z,96820.56
2022-08-06T22:04:59.103Z,96816.84
2022-08-06T22:07:33.610Z,96813.69
2022-08-06T22:10:13.417Z,96814.13
2022-08-06T22:13:11.873Z,96811.41
2022-08-06T22:15:34.157Z,96815.59
2022-08-06T22:18:16.869Z,96808.69
2022-08-06T22:20:45.978Z,96808.16
2022-08-06T22:23:17.280Z,96813.81
2022-08-06T22:25:45.231Z,96796.06
2022-08-06T22:28:23.845Z,96803.84
2022-08-06T22:31:01.335Z,96802.66
2022-08-06T22:33:45.442Z,96801.97
2022-08-06T22:36:18.126Z,96807.88
2022-08-06T22:39:01.582Z,96800.63
2022-08-06T22:41:42.351Z,96804.97
2022-08-06T22:44:14.950Z,96803.28
2022-08-06T22:46:57.898Z,96806.22
2022-08-06T22:49:24.951Z,96806.03
2022-08-06T22:51:51.838Z,96807.09
2022-08-06T22:54:29.893Z,96808.03
2022-08-06T22:57:06.064Z,96800.88
2022-08-06T23:00:07.003Z,96800.44
2022-08-06T23:02:22.051Z,96798.16
2022-08-06T23:04:49.594Z,96787.53
2022-08-06T23:07:24.302Z,96793.16
2022-08-06T23:09:54.278Z,96788.66
2022-08-06T23:12:31.450Z,96790.25
2022-08-06T23:15:19.908Z,96784.16
2022-08-06T23:17:56.055Z,96788.41
2022-08-06T23:20:26.214Z,96786.34
2022-08-06T23:22:59.713Z,96776.41
2022-08-06T23:26:00.966Z,96766.63
2022-08-06T23:28:13.166Z,96765.38
2022-08-06T23:30:41.882Z,96766.56
2022-08-06T23:33:08.567Z,96763.81
2022-08-06T23:35:38.023Z,96766.72
2022-08-06T23:38:31.747Z,96762.88
2022-08-06T23:40:55.065Z,96765.91
2022-08-06T23:43:22.993Z,96776.69
2022-08-06T23:45:50.210Z,96773.34
2022-08-06T23:48:17.382Z,96766.47
2022-08-06T23:50:53.080Z,96772.94
2022-08-06T23:54:08.565Z,96770.78
2022-08-06T23:56:16.662Z,96773.50
2022-08-06T23:58:48.930Z,96769.59
